createdAt,value
2019-03-20T00:02:13.877Z,99.90
2019-03-20T00:04:49.620Z,99.90
2019-03-20T00:07:18.374Z,99.90
2019-03-20T00:10:08.398Z,99.90
2019-03-20T00:12:39.115Z,99.90
2019-03-20T00:15:10.270Z,99.90
2019-03-20T00:17:40.786Z,99.90
2019-03-20T00:20:11.000Z,99.90
2019-03-20T00:22:42.982Z,99.90
2019-03-20T00:25:12.366Z,99.90
2019-03-20T00:27:42.927Z,99.90
2019-03-20T00:30:13.215Z,99.90
2019-03-20T00:32:43.049Z,99.90
2019-03-20T00:35:12.865Z,99.90
2019-03-20T00:37:42.991Z,99.90
2019-03-20T00:40:13.573Z,99.90
2019-03-20T00:42:43.905Z,99.90
2019-03-20T00:45:14.069Z,99.90
2019-03-20T00:47:44.603Z,99.90
2019-03-20T00:50:15.074Z,99.90
2019-03-20T00:52:45.547Z,99.90
2019-03-20T00:55:15.859Z,99.90
2019-03-20T00:57:46.502Z,99.90
2019-03-20T01:00:18.176Z,99.90
2019-03-20T01:02:49.099Z,99.90
2019-03-20T01:05:18.909Z,99.90
2019-03-20T01:07:48.785Z,99.90
2019-03-20T01:10:18.704Z,99.90
2019-03-20T01:12:48.547Z,99.90
2019-03-20T01:15:18.592Z,99.90
2019-03-20T01:17:49.309Z,99.90
2019-03-20T01:20:19.171Z,99.90
2019-03-20T01:22:49.852Z,99.90
2019-03-20T01:25:20.191Z,99.90
2019-03-20T01:27:50.285Z,99.90
2019-03-20T01:30:39.536Z,99.90
2019-03-20T01:33:11.211Z,99.90
2019-03-20T01:35:41.397Z,99.90
2019-03-20T01:38:11.209Z,99.90
2019-03-20T01:40:41.270Z,99.90
2019-03-20T01:43:11.085Z,99.90
2019-03-20T01:45:40.916Z,99.90
2019-03-20T01:48:10.753Z,99.90
2019-03-20T01:50:40.580Z,99.90
2019-03-20T01:53:10.405Z,99.90
2019-03-20T01:55:40.298Z,99.90
2019-03-20T01:58:10.171Z,99.90
2019-03-20T02:00:40.416Z,99.90
2019-03-20T02:03:10.268Z,99.90
2019-03-20T02:05:40.085Z,99.90
2019-03-20T02:08:09.843Z,99.90
2019-03-20T02:10:58.790Z,99.90
2019-03-20T02:13:28.663Z,99.90
2019-03-20T02:15:58.440Z,99.90
2019-03-20T02:18:28.275Z,99.90
2019-03-20T02:21:00.044Z,99.90
2019-03-20T02:23:29.914Z,99.90
2019-03-20T02:25:59.827Z,99.90
2019-03-20T02:28:29.533Z,99.90
2019-03-20T02:30:59.394Z,99.90
2019-03-20T02:33:29.233Z,99.90
2019-03-20T02:35:58.981Z,99.90
2019-03-20T02:38:28.807Z,99.90
2019-03-20T02:40:58.475Z,99.90
2019-03-20T02:43:28.630Z,99.90
2019-03-20T02:45:58.790Z,99.90
2019-03-20T02:48:29.052Z,99.90
2019-03-20T02:50:58.934Z,99.90
2019-03-20T02:53:28.799Z,99.90
2019-03-20T02:55:58.639Z,99.90
2019-03-20T02:58:28.612Z,99.90
2019-03-20T03:00:58.810Z,99.90
2019-03-20T03:03:28.648Z,99.90
2019-03-20T03:06:06.832Z,99.90
2019-03-20T03:08:30.004Z,99.90
2019-03-20T03:11:00.159Z,99.90
2019-03-20T03:13:30.494Z,99.90
2019-03-20T03:16:00.365Z,99.90
2019-03-20T03:18:30.268Z,99.90
2019-03-20T03:21:00.191Z,99.90
2019-03-20T03:23:30.064Z,99.90
2019-03-20T03:26:00.166Z,99.90
2019-03-20T03:28:30.878Z,99.90
2019-03-20T03:31:01.284Z,99.90
2019-03-20T03:33:32.128Z,99.90
2019-03-20T03:36:02.999Z,99.90
2019-03-20T03:38:33.215Z,99.90
2019-03-20T03:41:03.870Z,99.90
2019-03-20T03:43:34.047Z,99.90
2019-03-20T03:46:03.907Z,99.90
2019-03-20T03:48:34.543Z,99.90
2019-03-20T03:51:04.637Z,99.90
2019-03-20T03:53:35.014Z,99.90
2019-03-20T03:56:05.427Z,99.90
2019-03-20T03:58:35.206Z,99.90
2019-03-20T04:01:05.042Z,99.90
2019-03-20T04:03:34.939Z,99.90
2019-03-20T04:06:05.070Z,99.90
2019-03-20T04:08:35.334Z,99.90
2019-03-20T04:11:05.508Z,99.90
2019-03-20T04:13:35.361Z,99.90
2019-03-20T04:16:05.231Z,99.90
2019-03-20T04:18:35.098Z,99.90
2019-03-20T04:21:04.948Z,99.90
2019-03-20T04:23:34.792Z,99.90
2019-03-20T04:26:05.191Z,99.90
2019-03-20T04:28:35.367Z,99.90
2019-03-20T04:31:05.311Z,99.90
2019-03-20T04:33:35.146Z,99.90
2019-03-20T04:36:05.031Z,99.90
2019-03-20T04:38:34.789Z,99.90
2019-03-20T04:41:04.639Z,99.90
2019-03-20T04:43:34.510Z,99.90
2019-03-20T04:46:04.366Z,99.90
2019-03-20T04:48:34.482Z,99.90
2019-03-20T04:51:04.915Z,99.90
2019-03-20T04:53:35.570Z,99.90
2019-03-20T04:56:05.793Z,99.90
2019-03-20T04:58:36.430Z,99.90
2019-03-20T05:01:08.414Z,99.90
2019-03-20T05:03:40.630Z,99.90
2019-03-20T05:06:12.839Z,99.90
2019-03-20T05:08:44.934Z,99.90
2019-03-20T05:11:15.094Z,99.90
2019-03-20T05:13:45.554Z,99.90
2019-03-20T05:16:16.038Z,99.90
2019-03-20T05:18:46.718Z,99.90
2019-03-20T05:21:17.413Z,99.90
2019-03-20T05:23:48.034Z,99.90
2019-03-20T05:26:18.699Z,99.90
2019-03-20T05:28:49.242Z,99.90
2019-03-20T05:31:19.995Z,99.90
2019-03-20T05:33:50.610Z,99.90
2019-03-20T05:36:21.430Z,99.90
2019-03-20T05:38:51.817Z,99.90
2019-03-20T05:41:21.671Z,99.90
2019-03-20T05:43:52.459Z,99.90
2019-03-20T05:46:23.276Z,99.90
2019-03-20T05:48:54.015Z,99.90
2019-03-20T05:51:24.126Z,99.90
2019-03-20T05:53:54.576Z,99.90
2019-03-20T05:56:24.354Z,99.90
2019-03-20T05:58:55.204Z,99.90
2019-03-20T06:01:26.002Z,99.90
2019-03-20T06:03:56.159Z,99.90
2019-03-20T06:06:26.002Z,99.90
2019-03-20T06:08:55.843Z,99.90
2019-03-20T06:11:25.701Z,99.90
2019-03-20T06:13:55.860Z,99.90
2019-03-20T06:16:25.722Z,99.90
2019-03-20T06:18:55.543Z,99.90
2019-03-20T06:21:25.447Z,99.90
2019-03-20T06:23:55.290Z,99.90
2019-03-20T06:26:25.123Z,99.90
2019-03-20T06:28:55.221Z,99.90
2019-03-20T06:31:25.143Z,99.90
2019-03-20T06:33:55.060Z,99.90
2019-03-20T06:36:24.930Z,99.90
2019-03-20T06:38:55.207Z,99.90
2019-03-20T06:41:25.122Z,99.90
2019-03-20T06:43:55.028Z,99.90
2019-03-20T06:46:24.965Z,99.90
2019-03-20T06:48:54.792Z,99.90
2019-03-20T06:54:13.558Z,99.90
2019-03-20T06:56:43.407Z,99.90
2019-03-20T07:00:10.547Z,99.90
2019-03-20T07:02:59.840Z,99.90
2019-03-20T07:05:55.434Z,99.90
2019-03-20T07:08:29.061Z,99.90
2019-03-20T07:11:07.575Z,99.90
2019-03-20T07:13:37.776Z,99.90
2019-03-20T07:16:07.771Z,99.90
2019-03-20T07:18:37.670Z,99.90
2019-03-20T07:21:07.514Z,99.90
2019-03-20T07:23:37.362Z,99.90
2019-03-20T07:26:07.912Z,99.90
2019-03-20T07:28:38.077Z,99.90
2019-03-20T07:31:15.410Z,99.90
2019-03-20T07:33:41.930Z,99.90
2019-03-20T07:36:12.142Z,99.90
2019-03-20T07:38:42.554Z,99.90
2019-03-20T07:41:12.491Z,99.90
2019-03-20T07:43:42.367Z,99.90
2019-03-20T07:46:12.231Z,99.90
2019-03-20T07:48:43.117Z,99.90
2019-03-20T07:51:12.951Z,99.90
2019-03-20T07:53:42.785Z,99.90
2019-03-20T07:56:13.226Z,99.90
2019-03-20T07:58:43.322Z,99.90
2019-03-20T08:01:13.230Z,99.90
2019-03-20T08:03:43.162Z,99.90
2019-03-20T08:06:12.973Z,99.90
2019-03-20T08:08:42.844Z,99.90
2019-03-20T08:11:12.918Z,99.90
2019-03-20T08:13:42.770Z,99.90
2019-03-20T08:16:12.610Z,99.90
2019-03-20T08:18:42.459Z,99.90
2019-03-20T08:21:13.260Z,99.90
2019-03-20T08:23:43.142Z,99.90
2019-03-20T08:26:13.017Z,99.90
2019-03-20T08:28:42.864Z,99.90
2019-03-20T08:31:13.062Z,99.90
2019-03-20T08:33:44.136Z,99.90
2019-03-20T08:36:14.011Z,99.90
2019-03-20T08:38:44.411Z,99.90
2019-03-20T08:41:15.126Z,99.90
2019-03-20T08:43:47.187Z,98.20
2019-03-20T08:46:17.611Z,96.20
2019-03-20T08:48:48.571Z,94.00
2019-03-20T08:51:20.012Z,92.50
2019-03-20T08:53:51.265Z,92.30
2019-03-20T08:56:21.509Z,91.00
2019-03-20T08:58:52.164Z,88.60
2019-03-20T09:01:28.590Z,85.50
2019-03-20T09:03:55.027Z,84.20
2019-03-20T09:06:44.222Z,82.90
2019-03-20T09:09:14.081Z,79.50
2019-03-20T09:11:43.962Z,79.20
2019-03-20T09:14:13.870Z,79.10
2019-03-20T09:16:43.766Z,78.30
2019-03-20T09:19:13.742Z,77.90
2019-03-20T09:21:43.711Z,76.50
2019-03-20T09:24:14.619Z,76.50
2019-03-20T09:26:45.451Z,74.80
2019-03-20T09:29:18.863Z,74.70
2019-03-20T09:31:47.982Z,71.70
2019-03-20T09:34:18.318Z,74.20
2019-03-20T09:36:49.022Z,72.00
2019-03-20T09:39:19.666Z,70.70
2019-03-20T09:41:49.998Z,70.30
2019-03-20T09:44:19.826Z,68.80
2019-03-20T09:46:49.916Z,68.20
2019-03-20T09:49:20.346Z,68.50
2019-03-20T09:51:50.963Z,68.70
2019-03-20T09:54:21.218Z,68.60
2019-03-20T09:56:51.643Z,67.60
2019-03-20T09:59:22.252Z,67.10
2019-03-20T10:01:52.339Z,66.50
2019-03-20T10:04:41.914Z,67.90
2019-03-20T10:07:11.932Z,67.70
2019-03-20T10:10:01.508Z,67.30
2019-03-20T10:12:32.188Z,66.00
2019-03-20T10:15:03.181Z,64.90
2019-03-20T10:17:33.840Z,64.90
2019-03-20T10:20:04.606Z,65.70
2019-03-20T10:22:34.863Z,64.30
2019-03-20T10:25:05.194Z,65.00
2019-03-20T10:27:35.297Z,64.00
2019-03-20T10:30:07.339Z,63.30
2019-03-20T10:32:37.815Z,65.80
2019-03-20T10:35:09.190Z,64.70
2019-03-20T10:37:39.363Z,64.80
2019-03-20T10:40:11.941Z,65.30
2019-03-20T10:42:41.921Z,63.50
2019-03-20T10:45:12.650Z,63.90
2019-03-20T10:47:42.594Z,63.80
2019-03-20T10:50:14.798Z,62.60
2019-03-20T10:52:44.799Z,63.00
2019-03-20T10:55:14.758Z,61.40
2019-03-20T10:57:44.713Z,61.50
2019-03-20T11:00:17.346Z,58.80
2019-03-20T11:02:51.143Z,61.20
2019-03-20T11:05:21.604Z,61.40
2019-03-20T11:07:52.169Z,62.10
2019-03-20T11:10:23.260Z,62.00
2019-03-20T11:12:54.481Z,64.00
2019-03-20T11:15:24.812Z,63.90
2019-03-20T11:17:55.408Z,61.70
2019-03-20T11:20:25.746Z,62.80
2019-03-20T11:22:56.513Z,63.10
2019-03-20T11:25:26.742Z,64.30
2019-03-20T11:27:57.261Z,64.00
2019-03-20T11:30:27.218Z,62.10
2019-03-20T11:32:57.145Z,63.10
2019-03-20T11:35:27.164Z,61.10
2019-03-20T11:37:57.105Z,61.40
2019-03-20T11:40:28.392Z,61.30
2019-03-20T11:42:58.469Z,59.50
2019-03-20T11:45:28.739Z,59.60
2019-03-20T11:47:58.684Z,60.00
2019-03-20T11:50:34.763Z,61.40
2019-03-20T11:53:05.437Z,59.70
2019-03-20T11:55:35.713Z,60.70
2019-03-20T11:58:06.108Z,60.90
2019-03-20T12:00:36.296Z,61.00
2019-03-20T12:03:06.311Z,62.10
2019-03-20T12:05:37.057Z,62.70
2019-03-20T12:08:07.087Z,63.60
2019-03-20T12:10:37.386Z,62.60
2019-03-20T12:13:07.667Z,63.40
2019-03-20T12:15:38.580Z,63.80
2019-03-20T12:18:08.805Z,63.20
2019-03-20T12:20:39.102Z,62.20
2019-03-20T12:23:09.111Z,63.10
2019-03-20T12:25:39.106Z,63.70
2019-03-20T12:28:09.081Z,63.00
2019-03-20T12:30:40.195Z,63.00
2019-03-20T12:33:10.249Z,63.00
2019-03-20T12:35:40.406Z,62.10
2019-03-20T12:38:14.710Z,63.30
2019-03-20T12:40:42.877Z,63.50
2019-03-20T12:43:12.823Z,63.10
2019-03-20T12:45:42.717Z,63.40
2019-03-20T12:48:12.698Z,64.10
2019-03-20T12:50:42.746Z,65.40
2019-03-20T12:53:13.036Z,65.70
2019-03-20T12:55:45.176Z,66.60
2019-03-20T12:58:15.091Z,64.90
2019-03-20T13:05:44.078Z,66.60
2019-03-20T13:08:16.485Z,65.70
2019-03-20T13:10:46.761Z,66.20
2019-03-20T13:13:17.516Z,65.00
2019-03-20T13:15:47.793Z,65.90
2019-03-20T13:18:18.265Z,65.50
2019-03-20T13:20:49.020Z,65.20
2019-03-20T13:23:21.443Z,64.80
2019-03-20T13:25:52.361Z,63.90
2019-03-20T13:28:22.687Z,65.60
2019-03-20T13:31:13.274Z,67.20
2019-03-20T13:33:43.238Z,67.20
2019-03-20T13:36:13.798Z,67.00
2019-03-20T13:38:44.206Z,67.80
2019-03-20T13:41:14.578Z,67.40
2019-03-20T13:43:45.190Z,66.30
2019-03-20T13:46:15.822Z,68.10
2019-03-20T13:48:45.805Z,67.80
2019-03-20T13:51:15.752Z,69.30
2019-03-20T13:53:45.725Z,71.10
2019-03-20T13:56:15.614Z,71.30
2019-03-20T13:58:46.228Z,67.40
2019-03-20T14:01:16.228Z,59.50
2019-03-20T14:03:53.298Z,58.30
2019-03-20T14:06:26.932Z,58.20
2019-03-20T14:08:57.155Z,58.50
2019-03-20T14:11:27.468Z,58.60
2019-03-20T14:13:58.317Z,57.90
2019-03-20T14:16:29.742Z,57.70
2019-03-20T14:19:00.382Z,58.10
2019-03-20T14:21:31.181Z,58.10
2019-03-20T14:24:01.780Z,58.20
2019-03-20T14:26:32.782Z,57.10
2019-03-20T14:29:03.247Z,57.30
2019-03-20T14:31:33.843Z,57.00
2019-03-20T14:34:04.427Z,57.80
2019-03-20T14:36:34.924Z,56.40
2019-03-20T14:39:07.774Z,56.90
2019-03-20T14:41:38.699Z,56.80
2019-03-20T14:44:10.642Z,57.00
2019-03-20T14:46:41.192Z,57.40
2019-03-20T14:49:11.953Z,57.00
2019-03-20T14:51:43.085Z,56.40
2019-03-20T14:54:13.613Z,56.50
2019-03-20T14:56:44.776Z,56.60
2019-03-20T14:59:15.024Z,56.80
2019-03-20T15:01:45.296Z,56.60
2019-03-20T15:04:15.686Z,56.50
2019-03-20T15:06:46.566Z,57.30
2019-03-20T15:09:18.316Z,57.60
2019-03-20T15:11:49.545Z,57.00
2019-03-20T15:14:20.070Z,56.80
2019-03-20T15:16:50.837Z,57.30
2019-03-20T15:19:23.933Z,56.30
2019-03-20T15:21:53.894Z,57.10
2019-03-20T15:24:23.892Z,57.70
2019-03-20T15:26:54.242Z,57.80
2019-03-20T15:29:25.454Z,55.60
2019-03-20T15:31:56.675Z,56.40
2019-03-20T15:34:28.208Z,57.60
2019-03-20T15:36:58.146Z,57.20
2019-03-20T15:39:28.101Z,57.30
2019-03-20T15:41:58.110Z,58.70
2019-03-20T15:44:28.416Z,58.50
2019-03-20T15:46:59.389Z,57.60
2019-03-20T15:49:29.585Z,56.80
2019-03-20T15:51:59.797Z,56.30
2019-03-20T15:54:29.929Z,56.70
2019-03-20T15:56:59.892Z,56.60
2019-03-20T15:59:30.072Z,59.40
2019-03-20T16:02:00.898Z,58.90
2019-03-20T16:04:31.593Z,59.70
2019-03-20T16:07:02.159Z,59.10
2019-03-20T16:09:32.179Z,59.90
2019-03-20T16:12:02.465Z,58.80
2019-03-20T16:14:33.208Z,56.40
2019-03-20T16:17:03.204Z,57.00
2019-03-20T16:19:33.320Z,58.30
2019-03-20T16:22:03.963Z,58.30
2019-03-20T16:24:34.021Z,57.80
2019-03-20T16:27:04.050Z,58.80
2019-03-20T16:29:34.293Z,59.90
2019-03-20T16:32:04.662Z,59.50
2019-03-20T16:34:35.474Z,58.60
2019-03-20T16:37:06.327Z,56.80
2019-03-20T16:39:36.545Z,57.50
2019-03-20T16:42:07.159Z,58.20
2019-03-20T16:44:37.677Z,57.80
2019-03-20T16:47:07.881Z,58.00
2019-03-20T16:49:38.081Z,58.60
2019-03-20T16:52:08.041Z,58.50
2019-03-20T16:54:38.486Z,58.60
2019-03-20T16:57:09.136Z,58.90
2019-03-20T16:59:39.754Z,58.90
2019-03-20T17:02:11.644Z,59.10
2019-03-20T17:04:43.613Z,59.00
2019-03-20T17:07:14.912Z,60.20
2019-03-20T17:09:45.250Z,59.40
2019-03-20T17:12:15.755Z,59.50
2019-03-20T17:14:45.972Z,60.20
2019-03-20T17:17:15.876Z,60.30
2019-03-20T17:19:45.866Z,60.30
2019-03-20T17:22:15.815Z,61.40
2019-03-20T17:24:45.780Z,62.30
2019-03-20T17:27:16.192Z,63.00
2019-03-20T17:29:46.687Z,62.10
2019-03-20T17:32:19.426Z,62.60
2019-03-20T17:34:49.997Z,63.50
2019-03-20T17:37:20.561Z,64.20
2019-03-20T17:39:50.851Z,65.30
2019-03-20T17:42:21.563Z,63.60
2019-03-20T17:44:52.046Z,65.20
2019-03-20T17:47:22.506Z,65.30
2019-03-20T17:49:52.857Z,67.70
2019-03-20T17:52:23.438Z,68.70
2019-03-20T17:54:54.200Z,69.40
2019-03-20T17:57:24.370Z,69.60
2019-03-20T17:59:55.242Z,70.50
2019-03-20T18:02:25.190Z,70.50
2019-03-20T18:04:55.143Z,70.20
2019-03-20T18:07:25.349Z,72.20
2019-03-20T18:09:55.247Z,71.60
2019-03-20T18:12:25.217Z,70.90
2019-03-20T18:14:55.575Z,71.40
2019-03-20T18:17:25.513Z,72.10
2019-03-20T18:19:55.765Z,72.60
2019-03-20T18:22:26.082Z,72.10
2019-03-20T18:24:56.057Z,74.10
2019-03-20T18:27:26.117Z,76.30
2019-03-20T18:29:56.087Z,78.20
2019-03-20T18:32:26.049Z,79.40
2019-03-20T18:34:56.374Z,80.20
2019-03-20T18:37:26.606Z,81.30
2019-03-20T18:39:57.538Z,82.20
2019-03-20T18:42:28.606Z,82.00
2019-03-20T18:44:58.645Z,81.60
2019-03-20T18:47:28.872Z,82.50
2019-03-20T18:49:59.310Z,83.50
2019-03-20T18:52:29.156Z,84.00
2019-03-20T18:54:59.344Z,85.50
2019-03-20T18:57:29.613Z,84.60
2019-03-20T19:00:00.292Z,83.70
2019-03-20T19:02:30.621Z,83.80
2019-03-20T19:05:00.771Z,84.80
2019-03-20T19:07:30.957Z,86.10
2019-03-20T19:10:01.236Z,86.70
2019-03-20T19:12:31.187Z,87.80
2019-03-20T19:15:01.838Z,88.70
2019-03-20T19:17:32.051Z,90.00
2019-03-20T19:20:02.123Z,91.10
2019-03-20T19:22:32.394Z,91.70
2019-03-20T19:25:03.101Z,92.20
2019-03-20T19:27:34.065Z,94.10
2019-03-20T19:30:05.167Z,94.40
2019-03-20T19:32:35.337Z,95.60
2019-03-20T19:35:05.765Z,96.50
2019-03-20T19:37:35.556Z,98.40
2019-03-20T19:40:05.984Z,99.10
2019-03-20T19:42:35.809Z,99.80
2019-03-20T19:45:06.533Z,99.90
2019-03-20T19:47:36.392Z,99.90
2019-03-20T19:50:07.647Z,99.90
2019-03-20T19:52:37.930Z,99.90
2019-03-20T19:55:08.176Z,99.90
2019-03-20T19:57:38.988Z,99.90
2019-03-20T20:00:12.366Z,99.90
2019-03-20T20:02:46.742Z,99.90
2019-03-20T20:05:19.031Z,99.90
2019-03-20T20:07:50.965Z,99.90
2019-03-20T20:10:21.200Z,99.90
2019-03-20T20:12:51.659Z,99.90
2019-03-20T20:15:22.526Z,99.90
2019-03-20T20:17:52.409Z,99.90
2019-03-20T20:20:22.265Z,99.90
2019-03-20T20:22:52.562Z,99.90
2019-03-20T20:25:22.382Z,99.90
2019-03-20T20:27:52.600Z,99.90
2019-03-20T20:30:22.561Z,99.90
2019-03-20T20:32:52.490Z,99.90
2019-03-20T20:35:22.367Z,99.90
2019-03-20T20:37:52.215Z,99.90
2019-03-20T20:40:22.159Z,99.90
2019-03-20T20:42:52.005Z,99.90
2019-03-20T20:45:21.929Z,99.90
2019-03-20T20:47:51.841Z,99.90
2019-03-20T20:50:21.790Z,99.90
2019-03-20T20:52:51.897Z,99.90
2019-03-20T20:55:22.258Z,99.90
2019-03-20T20:57:52.739Z,99.90
2019-03-20T21:00:23.082Z,99.90
2019-03-20T21:02:53.026Z,99.90
2019-03-20T21:05:22.851Z,99.90
2019-03-20T21:07:52.681Z,99.90
2019-03-20T21:10:22.758Z,99.90
2019-03-20T21:12:56.715Z,99.90
2019-03-20T21:15:58.044Z,99.90
2019-03-20T21:19:04.929Z,99.90
2019-03-20T21:22:15.218Z,99.90
2019-03-20T21:24:45.598Z,99.90
2019-03-20T21:28:02.800Z,99.90
2019-03-20T21:30:57.398Z,99.90
2019-03-20T21:34:04.271Z,99.90
2019-03-20T21:37:20.041Z,99.90
2019-03-20T21:39:50.425Z,99.90
2019-03-20T21:43:06.825Z,99.90
2019-03-20T21:46:02.006Z,99.90
2019-03-20T21:48:32.442Z,99.90
2019-03-20T21:51:14.254Z,99.90
2019-03-20T21:54:25.640Z,99.90
2019-03-20T21:57:03.912Z,99.90
2019-03-20T22:00:19.784Z,99.90
2019-03-20T22:02:50.420Z,99.90
2019-03-20T22:05:42.717Z,99.90
2019-03-20T22:08:13.178Z,99.90
2019-03-20T22:11:29.133Z,99.90
2019-03-20T22:14:06.893Z,99.90
2019-03-20T22:17:10.146Z,99.90
2019-03-20T22:20:01.492Z,99.90
2019-03-20T22:22:55.839Z,99.90
2019-03-20T22:25:49.858Z,99.90
2019-03-20T22:28:45.483Z,99.90
2019-03-20T22:31:16.506Z,99.90
2019-03-20T22:34:22.674Z,99.90
2019-03-20T22:36:55.110Z,99.90
2019-03-20T22:40:11.531Z,99.90
2019-03-20T22:42:52.463Z,99.90
2019-03-20T22:46:03.679Z,99.90
2019-03-20T22:49:05.508Z,99.90
2019-03-20T22:51:57.374Z,99.90
2019-03-20T22:55:10.294Z,99.90
2019-03-20T22:58:33.643Z,99.90
2019-03-20T23:01:04.113Z,99.90
2019-03-20T23:03:38.559Z,99.90
2019-03-20T23:06:09.234Z,99.90
2019-03-20T23:08:39.849Z,99.90
2019-03-20T23:11:10.911Z,99.90
2019-03-20T23:13:42.009Z,99.90
2019-03-20T23:16:13.663Z,99.90
2019-03-20T23:18:44.043Z,99.90
2019-03-20T23:21:14.699Z,99.90
2019-03-20T23:23:46.018Z,99.90
2019-03-20T23:26:17.052Z,99.90
2019-03-20T23:28:47.777Z,99.90
2019-03-20T23:31:19.087Z,99.90
2019-03-20T23:33:50.178Z,99.90
2019-03-20T23:36:20.850Z,99.90
2019-03-20T23:38:51.842Z,99.90
2019-03-20T23:41:22.776Z,99.90
2019-03-20T23:43:54.329Z,99.90
2019-03-20T23:46:25.370Z,99.90
2019-03-20T23:49:08.450Z,99.90
2019-03-20T23:51:39.243Z,99.90
2019-03-20T23:54:10.489Z,99.90
2019-03-20T23:56:41.214Z,99.90
2019-03-20T23:59:11.895Z,99.90
